sensor_id;sensor_type;location;lat;lon;timestamp;temperature;humidity
27128;DHT22;14660;49.008;8.390;2022-09-03T00:00:48;21.30;99.90
27128;DHT22;14660;49.008;8.390;2022-09-03T00:03:40;21.30;99.90
27128;DHT22;14660;49.008;8.390;2022-09-03T00:06:30;21.30;99.90
27128;DHT22;14660;49.008;8.390;2022-09-03T00:09:18;21.30;99.90
27128;DHT22;14660;49.008;8.390;2022-09-03T00:12:10;21.20;99.90
27128;DHT22;14660;49.008;8.390;2022-09-03T00:14:49;21.20;99.90
27128;DHT22;14660;49.008;8.390;2022-09-03T00:17:39;21.10;99.90
27128;DHT22;14660;49.008;8.390;2022-09-03T00:20:16;21.10;99.90
27128;DHT22;14660;49.008;8.390;2022-09-03T00:22:49;21.20;99.90
27128;DHT22;14660;49.008;8.390;2022-09-03T00:25:26;21.10;99.90
27128;DHT22;14660;49.008;8.390;2022-09-03T00:27:56;21.10;99.90
27128;DHT22;14660;49.008;8.390;2022-09-03T00:30:24;21.20;99.90
27128;DHT22;14660;49.008;8.390;2022-09-03T00:33:11;21.10;99.90
27128;DHT22;14660;49.008;8.390;2022-09-03T00:36:09;21.10;99.90
27128;DHT22;14660;49.008;8.390;2022-09-03T00:38:37;21.10;99.90
27128;DHT22;14660;49.008;8.390;2022-09-03T00:53:23;21.00;99.90
27128;DHT22;14660;49.008;8.390;2022-09-03T00:56:33;20.90;99.90
27128;DHT22;14660;49.008;8.390;2022-09-03T00:59:32;20.80;99.90
27128;DHT22;14660;49.008;8.390;2022-09-03T01:02:22;20.80;99.90
27128;DHT22;14660;49.008;8.390;2022-09-03T01:11:13;20.80;99.90
27128;DHT22;14660;49.008;8.390;2022-09-03T01:17:06;20.80;99.90
27128;DHT22;14660;49.008;8.390;2022-09-03T01:40:58;20.50;99.90
27128;DHT22;14660;49.008;8.390;2022-09-03T01:46:42;20.50;99.90
27128;DHT22;14660;49.008;8.390;2022-09-03T01:49:37;20.40;99.90
27128;DHT22;14660;49.008;8.390;2022-09-03T01:55:13;20.40;99.90
27128;DHT22;14660;49.008;8.390;2022-09-03T01:57:57;20.30;99.90
27128;DHT22;14660;49.008;8.390;2022-09-03T02:00:26;20.30;99.90
27128;DHT22;14660;49.008;8.390;2022-09-03T02:02:54;20.30;99.90
27128;DHT22;14660;49.008;8.390;2022-09-03T02:05:38;20.40;99.90
27128;DHT22;14660;49.008;8.390;2022-09-03T02:08:08;20.40;99.90
27128;DHT22;14660;49.008;8.390;2022-09-03T02:10:53;20.40;99.90
27128;DHT22;14660;49.008;8.390;2022-09-03T02:13:35;20.30;99.90
27128;DHT22;14660;49.008;8.390;2022-09-03T02:19:11;20.30;99.90
27128;DHT22;14660;49.008;8.390;2022-09-03T02:21:45;20.30;99.90
27128;DHT22;14660;49.008;8.390;2022-09-03T02:24:13;20.30;99.90
27128;DHT22;14660;49.008;8.390;2022-09-03T02:26:40;20.30;99.90
27128;DHT22;14660;49.008;8.390;2022-09-03T02:29:07;20.30;99.90
27128;DHT22;14660;49.008;8.390;2022-09-03T02:31:34;20.30;99.90
27128;DHT22;14660;49.008;8.390;2022-09-03T02:34:02;20.30;99.90
27128;DHT22;14660;49.008;8.390;2022-09-03T02:36:35;20.30;99.90
27128;DHT22;14660;49.008;8.390;2022-09-03T02:39:03;20.30;99.90
27128;DHT22;14660;49.008;8.390;2022-09-03T02:41:31;20.40;99.90
27128;DHT22;14660;49.008;8.390;2022-09-03T02:44:25;20.40;99.90
27128;DHT22;14660;49.008;8.390;2022-09-03T02:47:11;20.40;99.90
27128;DHT22;14660;49.008;8.390;2022-09-03T02:49:38;20.40;99.90
27128;DHT22;14660;49.008;8.390;2022-09-03T02:52:08;20.30;99.90
27128;DHT22;14660;49.008;8.390;2022-09-03T02:54:35;20.30;99.90
27128;DHT22;14660;49.008;8.390;2022-09-03T02:57:06;20.30;99.90
27128;DHT22;14660;49.008;8.390;2022-09-03T02:59:34;20.30;99.90
27128;DHT22;14660;49.008;8.390;2022-09-03T03:02:02;20.10;99.90
27128;DHT22;14660;49.008;8.390;2022-09-03T03:04:30;20.10;99.90
27128;DHT22;14660;49.008;8.390;2022-09-03T03:06:57;20.00;99.90
27128;DHT22;14660;49.008;8.390;2022-09-03T03:09:24;20.10;99.90
27128;DHT22;14660;49.008;8.390;2022-09-03T03:11:51;20.10;99.90
27128;DHT22;14660;49.008;8.390;2022-09-03T03:14:19;20.20;99.90
27128;DHT22;14660;49.008;8.390;2022-09-03T03:16:46;20.20;99.90
27128;DHT22;14660;49.008;8.390;2022-09-03T03:19:13;20.20;99.90
27128;DHT22;14660;49.008;8.390;2022-09-03T03:21:39;20.20;99.90
27128;DHT22;14660;49.008;8.390;2022-09-03T03:24:06;20.20;99.90
27128;DHT22;14660;49.008;8.390;2022-09-03T03:26:34;20.30;99.90
27128;DHT22;14660;49.008;8.390;2022-09-03T03:29:01;20.30;99.90
27128;DHT22;14660;49.008;8.390;2022-09-03T03:31:32;20.20;99.90
27128;DHT22;14660;49.008;8.390;2022-09-03T03:34:01;20.20;99.90
27128;DHT22;14660;49.008;8.390;2022-09-03T03:36:31;20.20;99.90
27128;DHT22;14660;49.008;8.390;2022-09-03T03:38:59;20.10;99.90
27128;DHT22;14660;49.008;8.390;2022-09-03T03:41:28;20.10;99.90
27128;DHT22;14660;49.008;8.390;2022-09-03T03:44:02;20.10;99.90
27128;DHT22;14660;49.008;8.390;2022-09-03T03:46:31;20.20;99.90
27128;DHT22;14660;49.008;8.390;2022-09-03T03:48:59;20.20;99.90
27128;DHT22;14660;49.008;8.390;2022-09-03T03:51:26;20.20;99.90
27128;DHT22;14660;49.008;8.390;2022-09-03T03:53:56;20.20;99.90
27128;DHT22;14660;49.008;8.390;2022-09-03T03:56:25;20.20;99.90
27128;DHT22;14660;49.008;8.390;2022-09-03T03:58:53;20.20;99.90
27128;DHT22;14660;49.008;8.390;2022-09-03T04:01:23;20.20;99.90
27128;DHT22;14660;49.008;8.390;2022-09-03T04:03:51;20.20;99.90
27128;DHT22;14660;49.008;8.390;2022-09-03T04:06:19;20.30;99.90
27128;DHT22;14660;49.008;8.390;2022-09-03T04:08:47;20.30;99.90
27128;DHT22;14660;49.008;8.390;2022-09-03T04:11:18;20.30;99.90
27128;DHT22;14660;49.008;8.390;2022-09-03T04:13:45;20.20;99.90
27128;DHT22;14660;49.008;8.390;2022-09-03T04:16:23;20.10;99.90
27128;DHT22;14660;49.008;8.390;2022-09-03T04:18:52;20.10;99.90
27128;DHT22;14660;49.008;8.390;2022-09-03T04:21:27;20.00;99.90
27128;DHT22;14660;49.008;8.390;2022-09-03T04:23:55;19.90;99.90
27128;DHT22;14660;49.008;8.390;2022-09-03T04:26:28;19.90;99.90
27128;DHT22;14660;49.008;8.390;2022-09-03T04:29:04;19.90;99.90
27128;DHT22;14660;49.008;8.390;2022-09-03T04:31:32;19.90;99.90
27128;DHT22;14660;49.008;8.390;2022-09-03T04:33:59;19.90;99.90
27128;DHT22;14660;49.008;8.390;2022-09-03T04:36:28;20.00;99.90
27128;DHT22;14660;49.008;8.390;2022-09-03T04:38:58;20.00;99.90
27128;DHT22;14660;49.008;8.390;2022-09-03T04:41:27;20.00;99.90
27128;DHT22;14660;49.008;8.390;2022-09-03T04:43:56;20.00;99.90
27128;DHT22;14660;49.008;8.390;2022-09-03T04:46:26;20.00;99.90
27128;DHT22;14660;49.008;8.390;2022-09-03T04:48:53;20.00;99.90
27128;DHT22;14660;49.008;8.390;2022-09-03T04:51:23;19.90;99.90
27128;DHT22;14660;49.008;8.390;2022-09-03T04:53:59;19.90;99.90
27128;DHT22;14660;49.008;8.390;2022-09-03T04:56:32;19.90;99.90
27128;DHT22;14660;49.008;8.390;2022-09-03T04:59:04;19.90;99.90
27128;DHT22;14660;49.008;8.390;2022-09-03T05:01:32;19.90;99.90
27128;DHT22;14660;49.008;8.390;2022-09-03T05:04:00;19.90;99.90
27128;DHT22;14660;49.008;8.390;2022-09-03T05:06:29;19.90;99.90
27128;DHT22;14660;49.008;8.390;2022-09-03T05:08:57;19.90;99.90
27128;DHT22;14660;49.008;8.390;2022-09-03T05:11:25;19.90;99.90
27128;DHT22;14660;49.008;8.390;2022-09-03T05:13:54;19.90;99.90
27128;DHT22;14660;49.008;8.390;2022-09-03T05:16:22;19.80;99.90
27128;DHT22;14660;49.008;8.390;2022-09-03T05:18:54;19.90;99.90
27128;DHT22;14660;49.008;8.390;2022-09-03T05:21:21;19.90;99.90
27128;DHT22;14660;49.008;8.390;2022-09-03T05:23:49;20.00;99.90
27128;DHT22;14660;49.008;8.390;2022-09-03T05:26:21;20.10;99.90
27128;DHT22;14660;49.008;8.390;2022-09-03T05:28:55;20.10;99.90
27128;DHT22;14660;49.008;8.390;2022-09-03T05:31:24;20.10;99.90
27128;DHT22;14660;49.008;8.390;2022-09-03T05:33:55;20.20;99.90
27128;DHT22;14660;49.008;8.390;2022-09-03T05:36:28;20.20;99.90
27128;DHT22;14660;49.008;8.390;2022-09-03T05:38:57;20.30;99.90
27128;DHT22;14660;49.008;8.390;2022-09-03T05:41:25;20.30;99.90
27128;DHT22;14660;49.008;8.390;2022-09-03T05:43:53;20.30;99.90
27128;DHT22;14660;49.008;8.390;2022-09-03T05:46:31;20.30;99.90
27128;DHT22;14660;49.008;8.390;2022-09-03T05:49:00;20.30;99.90
27128;DHT22;14660;49.008;8.390;2022-09-03T05:51:28;20.30;99.90
27128;DHT22;14660;49.008;8.390;2022-09-03T05:53:56;20.30;99.90
27128;DHT22;14660;49.008;8.390;2022-09-03T05:56:25;20.40;99.90
27128;DHT22;14660;49.008;8.390;2022-09-03T05:58:55;20.40;99.90
27128;DHT22;14660;49.008;8.390;2022-09-03T06:01:30;20.40;99.90
27128;DHT22;14660;49.008;8.390;2022-09-03T06:04:15;20.50;99.90
27128;DHT22;14660;49.008;8.390;2022-09-03T06:06:46;20.60;99.90
27128;DHT22;14660;49.008;8.390;2022-09-03T06:09:17;20.50;99.90
27128;DHT22;14660;49.008;8.390;2022-09-03T06:11:44;20.60;99.90
27128;DHT22;14660;49.008;8.390;2022-09-03T06:14:13;20.70;99.90
27128;DHT22;14660;49.008;8.390;2022-09-03T06:16:43;20.70;99.90
27128;DHT22;14660;49.008;8.390;2022-09-03T06:19:11;20.80;99.90
27128;DHT22;14660;49.008;8.390;2022-09-03T06:21:41;20.90;99.90
27128;DHT22;14660;49.008;8.390;2022-09-03T06:24:09;21.00;99.90
27128;DHT22;14660;49.008;8.390;2022-09-03T06:26:40;21.00;99.90
27128;DHT22;14660;49.008;8.390;2022-09-03T06:29:07;21.10;99.90
27128;DHT22;14660;49.008;8.390;2022-09-03T06:31:34;21.20;99.90
27128;DHT22;14660;49.008;8.390;2022-09-03T06:34:00;21.20;99.90
27128;DHT22;14660;49.008;8.390;2022-09-03T06:36:27;21.00;99.90
27128;DHT22;14660;49.008;8.390;2022-09-03T06:38:55;20.80;99.90
27128;DHT22;14660;49.008;8.390;2022-09-03T06:41:28;20.80;99.90
27128;DHT22;14660;49.008;8.390;2022-09-03T06:44:01;20.70;99.90
27128;DHT22;14660;49.008;8.390;2022-09-03T06:46:33;20.60;99.90
27128;DHT22;14660;49.008;8.390;2022-09-03T06:49:01;20.50;99.90
27128;DHT22;14660;49.008;8.390;2022-09-03T06:51:29;20.40;99.90
27128;DHT22;14660;49.008;8.390;2022-09-03T06:54:02;20.50;99.90
27128;DHT22;14660;49.008;8.390;2022-09-03T06:56:28;20.50;99.90
27128;DHT22;14660;49.008;8.390;2022-09-03T06:58:57;20.60;99.90
27128;DHT22;14660;49.008;8.390;2022-09-03T07:01:26;20.60;99.90
27128;DHT22;14660;49.008;8.390;2022-09-03T07:03:56;20.60;99.90
27128;DHT22;14660;49.008;8.390;2022-09-03T07:06:25;20.60;99.90
27128;DHT22;14660;49.008;8.390;2022-09-03T07:08:55;20.50;99.90
27128;DHT22;14660;49.008;8.390;2022-09-03T07:11:25;20.50;99.90
27128;DHT22;14660;49.008;8.390;2022-09-03T07:13:53;20.40;99.90
27128;DHT22;14660;49.008;8.390;2022-09-03T07:16:33;20.40;99.90
27128;DHT22;14660;49.008;8.390;2022-09-03T07:19:01;20.00;99.90
27128;DHT22;14660;49.008;8.390;2022-09-03T07:21:32;19.90;99.90
27128;DHT22;14660;49.008;8.390;2022-09-03T07:24:00;19.60;99.90
27128;DHT22;14660;49.008;8.390;2022-09-03T07:26:30;19.40;99.90
27128;DHT22;14660;49.008;8.390;2022-09-03T07:28:58;19.50;99.90
27128;DHT22;14660;49.008;8.390;2022-09-03T07:31:29;19.40;99.90
27128;DHT22;14660;49.008;8.390;2022-09-03T07:33:59;19.60;99.90
27128;DHT22;14660;49.008;8.390;2022-09-03T07:36:29;19.50;99.90
27128;DHT22;14660;49.008;8.390;2022-09-03T07:38:57;19.60;99.90
27128;DHT22;14660;49.008;8.390;2022-09-03T07:41:25;19.70;99.90
27128;DHT22;14660;49.008;8.390;2022-09-03T07:43:53;19.60;99.90
27128;DHT22;14660;49.008;8.390;2022-09-03T07:46:22;19.50;99.90
27128;DHT22;14660;49.008;8.390;2022-09-03T07:48:50;19.40;99.90
27128;DHT22;14660;49.008;8.390;2022-09-03T07:51:22;19.40;99.90
27128;DHT22;14660;49.008;8.390;2022-09-03T07:53:57;19.20;99.90
27128;DHT22;14660;49.008;8.390;2022-09-03T07:56:25;19.30;99.90
27128;DHT22;14660;49.008;8.390;2022-09-03T07:58:52;19.40;99.90
27128;DHT22;14660;49.008;8.390;2022-09-03T08:01:23;19.50;99.90
27128;DHT22;14660;49.008;8.390;2022-09-03T08:03:52;19.50;99.90
27128;DHT22;14660;49.008;8.390;2022-09-03T08:06:21;19.50;99.90
27128;DHT22;14660;49.008;8.390;2022-09-03T08:08:57;19.50;99.90
27128;DHT22;14660;49.008;8.390;2022-09-03T08:11:26;19.40;99.90
27128;DHT22;14660;49.008;8.390;2022-09-03T08:13:59;19.40;99.90
27128;DHT22;14660;49.008;8.390;2022-09-03T08:16:31;19.30;99.90
27128;DHT22;14660;49.008;8.390;2022-09-03T08:18:58;19.30;99.90
27128;DHT22;14660;49.008;8.390;2022-09-03T08:21:26;19.30;99.90
27128;DHT22;14660;49.008;8.390;2022-09-03T08:23:54;19.20;99.90
27128;DHT22;14660;49.008;8.390;2022-09-03T08:26:29;19.30;99.90
27128;DHT22;14660;49.008;8.390;2022-09-03T08:28:57;19.30;99.90
27128;DHT22;14660;49.008;8.390;2022-09-03T08:31:26;19.20;99.90
27128;DHT22;14660;49.008;8.390;2022-09-03T08:33:55;19.20;99.90
27128;DHT22;14660;49.008;8.390;2022-09-03T08:36:24;19.10;99.90
27128;DHT22;14660;49.008;8.390;2022-09-03T08:38:53;19.00;99.90
27128;DHT22;14660;49.008;8.390;2022-09-03T08:50:07;18.90;99.90
27128;DHT22;14660;49.008;8.390;2022-09-03T08:58:30;19.40;99.90
27128;DHT22;14660;49.008;8.390;2022-09-03T09:21:58;20.00;99.90
27128;DHT22;14660;49.008;8.390;2022-09-03T09:24:49;20.10;99.90
27128;DHT22;14660;49.008;8.390;2022-09-03T09:27:18;20.10;99.90
27128;DHT22;14660;49.008;8.390;2022-09-03T09:29:53;19.90;99.90
27128;DHT22;14660;49.008;8.390;2022-09-03T09:32:21;19.90;99.90
27128;DHT22;14660;49.008;8.390;2022-09-03T09:34:48;19.90;99.90
27128;DHT22;14660;49.008;8.390;2022-09-03T09:37:15;19.80;99.90
27128;DHT22;14660;49.008;8.390;2022-09-03T09:39:57;19.80;99.90
27128;DHT22;14660;49.008;8.390;2022-09-03T09:42:24;20.00;99.90
27128;DHT22;14660;49.008;8.390;2022-09-03T09:44:51;20.30;99.90
27128;DHT22;14660;49.008;8.390;2022-09-03T09:47:37;20.50;99.90
27128;DHT22;14660;49.008;8.390;2022-09-03T09:50:16;20.80;99.90
27128;DHT22;14660;49.008;8.390;2022-09-03T09:52:43;21.00;99.90
27128;DHT22;14660;49.008;8.390;2022-09-03T09:55:16;21.20;99.90
27128;DHT22;14660;49.008;8.390;2022-09-03T09:57:43;21.30;99.90
27128;DHT22;14660;49.008;8.390;2022-09-03T10:00:17;21.50;99.90
27128;DHT22;14660;49.008;8.390;2022-09-03T10:02:49;21.70;99.90
27128;DHT22;14660;49.008;8.390;2022-09-03T10:05:31;21.90;99.90
27128;DHT22;14660;49.008;8.390;2022-09-03T10:08:01;22.30;99.90
27128;DHT22;14660;49.008;8.390;2022-09-03T10:10:39;22.50;99.90
27128;DHT22;14660;49.008;8.390;2022-09-03T10:13:32;22.70;99.90
27128;DHT22;14660;49.008;8.390;2022-09-03T10:16:12;22.60;99.90
27128;DHT22;14660;49.008;8.390;2022-09-03T10:22:04;22.50;99.90
27128;DHT22;14660;49.008;8.390;2022-09-03T10:24:59;22.60;99.90
27128;DHT22;14660;49.008;8.390;2022-09-03T10:27:28;22.70;99.90
27128;DHT22;14660;49.008;8.390;2022-09-03T10:29:57;22.90;99.90
27128;DHT22;14660;49.008;8.390;2022-09-03T10:35:35;23.30;99.90
27128;DHT22;14660;49.008;8.390;2022-09-03T10:41:29;23.70;99.90
27128;DHT22;14660;49.008;8.390;2022-09-03T10:55:18;23.20;99.90
27128;DHT22;14660;49.008;8.390;2022-09-03T11:00:40;23.10;99.90
27128;DHT22;14660;49.008;8.390;2022-09-03T11:06:23;22.90;99.90
27128;DHT22;14660;49.008;8.390;2022-09-03T11:12:01;22.50;99.90
27128;DHT22;14660;49.008;8.390;2022-09-03T11:17:48;22.60;99.90
27128;DHT22;14660;49.008;8.390;2022-09-03T11:20:34;22.50;99.90
27128;DHT22;14660;49.008;8.390;2022-09-03T11:23:03;22.30;99.90
27128;DHT22;14660;49.008;8.390;2022-09-03T11:25:34;22.40;99.90
27128;DHT22;14660;49.008;8.390;2022-09-03T11:33:59;22.10;99.90
27128;DHT22;14660;49.008;8.390;2022-09-03T11:36:37;22.20;99.90
27128;DHT22;14660;49.008;8.390;2022-09-03T11:39:34;22.30;99.90
27128;DHT22;14660;49.008;8.390;2022-09-03T11:42:04;22.50;99.90
27128;DHT22;14660;49.008;8.390;2022-09-03T11:44:48;22.60;99.90
27128;DHT22;14660;49.008;8.390;2022-09-03T11:47:38;22.60;99.90
27128;DHT22;14660;49.008;8.390;2022-09-03T11:52:47;22.90;99.90
27128;DHT22;14660;49.008;8.390;2022-09-03T11:55:32;22.90;99.90
27128;DHT22;14660;49.008;8.390;2022-09-03T11:58:24;22.80;99.90
27128;DHT22;14660;49.008;8.390;2022-09-03T12:00:52;22.70;99.90
27128;DHT22;14660;49.008;8.390;2022-09-03T12:18:35;22.60;99.90
27128;DHT22;14660;49.008;8.390;2022-09-03T12:21:19;22.60;99.90
27128;DHT22;14660;49.008;8.390;2022-09-03T12:23:51;22.70;99.90
27128;DHT22;14660;49.008;8.390;2022-09-03T12:26:23;22.80;99.90
27128;DHT22;14660;49.008;8.390;2022-09-03T12:28:56;22.80;99.90
27128;DHT22;14660;49.008;8.390;2022-09-03T12:31:45;22.80;99.90
27128;DHT22;14660;49.008;8.390;2022-09-03T12:34:16;23.00;99.90
27128;DHT22;14660;49.008;8.390;2022-09-03T12:37:01;23.00;99.90
27128;DHT22;14660;49.008;8.390;2022-09-03T12:39:28;23.00;99.90
27128;DHT22;14660;49.008;8.390;2022-09-03T12:42:05;23.10;99.90
27128;DHT22;14660;49.008;8.390;2022-09-03T12:44:51;23.00;99.90
27128;DHT22;14660;49.008;8.390;2022-09-03T12:47:21;22.80;99.90
27128;DHT22;14660;49.008;8.390;2022-09-03T12:49:50;22.60;99.90
27128;DHT22;14660;49.008;8.390;2022-09-03T13:00:49;22.80;99.90
27128;DHT22;14660;49.008;8.390;2022-09-03T13:06:27;22.80;99.90
27128;DHT22;14660;49.008;8.390;2022-09-03T13:09:12;22.70;99.90
27128;DHT22;14660;49.008;8.390;2022-09-03T13:11:39;22.70;99.90
27128;DHT22;14660;49.008;8.390;2022-09-03T13:14:13;22.90;99.90
27128;DHT22;14660;49.008;8.390;2022-09-03T13:17:19;23.10;99.90
27128;DHT22;14660;49.008;8.390;2022-09-03T13:31:58;24.40;99.90
27128;DHT22;14660;49.008;8.390;2022-09-03T13:34:32;24.60;99.90
27128;DHT22;14660;49.008;8.390;2022-09-03T13:39:58;25.10;99.90
27128;DHT22;14660;49.008;8.390;2022-09-03T13:42:48;25.30;99.90
27128;DHT22;14660;49.008;8.390;2022-09-03T13:45:37;25.30;99.90
27128;DHT22;14660;49.008;8.390;2022-09-03T13:48:28;25.50;99.90
27128;DHT22;14660;49.008;8.390;2022-09-03T13:51:42;25.50;99.90
27128;DHT22;14660;49.008;8.390;2022-09-03T13:54:34;25.70;99.90
27128;DHT22;14660;49.008;8.390;2022-09-03T13:57:32;25.70;99.90
27128;DHT22;14660;49.008;8.390;2022-09-03T14:00:39;25.50;99.90
27128;DHT22;14660;49.008;8.390;2022-09-03T14:15:21;24.90;99.90
27128;DHT22;14660;49.008;8.390;2022-09-03T14:18:12;24.90;99.90
27128;DHT22;14660;49.008;8.390;2022-09-03T14:26:34;25.00;99.90
27128;DHT22;14660;49.008;8.390;2022-09-03T14:29:21;25.00;99.90
27128;DHT22;14660;49.008;8.390;2022-09-03T14:41:21;24.80;99.90
27128;DHT22;14660;49.008;8.390;2022-09-03T14:56:32;25.00;99.90
27128;DHT22;14660;49.008;8.390;2022-09-03T15:30:58;23.60;99.90
27128;DHT22;14660;49.008;8.390;2022-09-03T15:36:43;23.40;99.90
27128;DHT22;14660;49.008;8.390;2022-09-03T15:39:26;23.20;99.90
27128;DHT22;14660;49.008;8.390;2022-09-03T15:42:17;23.30;99.90
27128;DHT22;14660;49.008;8.390;2022-09-03T15:44:50;23.10;99.90
27128;DHT22;14660;49.008;8.390;2022-09-03T15:47:56;23.10;99.90
27128;DHT22;14660;49.008;8.390;2022-09-03T16:05:53;23.00;99.90
27128;DHT22;14660;49.008;8.390;2022-09-03T16:14:50;23.10;99.90
27128;DHT22;14660;49.008;8.390;2022-09-03T16:17:37;23.10;99.90
27128;DHT22;14660;49.008;8.390;2022-09-03T16:25:51;23.20;99.90
27128;DHT22;14660;49.008;8.390;2022-09-03T16:58:58;23.00;99.90
27128;DHT22;14660;49.008;8.390;2022-09-03T17:19:19;22.50;99.90
27128;DHT22;14660;49.008;8.390;2022-09-03T17:22:15;22.50;99.90
27128;DHT22;14660;49.008;8.390;2022-09-03T17:24:52;22.50;99.90
27128;DHT22;14660;49.008;8.390;2022-09-03T17:27:48;22.40;99.90
27128;DHT22;14660;49.008;8.390;2022-09-03T17:36:27;22.20;99.90
27128;DHT22;14660;49.008;8.390;2022-09-03T17:45:15;22.10;99.90
27128;DHT22;14660;49.008;8.390;2022-09-03T17:48:10;22.00;99.90
27128;DHT22;14660;49.008;8.390;2022-09-03T17:50:43;22.00;99.90
27128;DHT22;14660;49.008;8.390;2022-09-03T17:53:52;21.90;99.90
27128;DHT22;14660;49.008;8.390;2022-09-03T17:59:29;21.90;99.90
27128;DHT22;14660;49.008;8.390;2022-09-03T18:04:47;21.80;99.90
27128;DHT22;14660;49.008;8.390;2022-09-03T18:13:23;21.60;99.90
27128;DHT22;14660;49.008;8.390;2022-09-03T18:16:06;21.60;99.90
27128;DHT22;14660;49.008;8.390;2022-09-03T18:18:51;21.50;99.90
27128;DHT22;14660;49.008;8.390;2022-09-03T18:21:21;21.50;99.90
27128;DHT22;14660;49.008;8.390;2022-09-03T18:27:47;21.40;99.90
27128;DHT22;14660;49.008;8.390;2022-09-03T18:30:34;21.40;99.90
27128;DHT22;14660;49.008;8.390;2022-09-03T18:33:23;21.30;99.90
27128;DHT22;14660;49.008;8.390;2022-09-03T18:36:08;21.20;99.90
27128;DHT22;14660;49.008;8.390;2022-09-03T18:39:13;21.20;99.90
27128;DHT22;14660;49.008;8.390;2022-09-03T18:42:18;21.20;99.90
27128;DHT22;14660;49.008;8.390;2022-09-03T18:48:20;20.90;99.90
27128;DHT22;14660;49.008;8.390;2022-09-03T18:51:35;20.90;99.90
27128;DHT22;14660;49.008;8.390;2022-09-03T18:54:43;21.00;99.90
27128;DHT22;14660;49.008;8.390;2022-09-03T18:57:55;20.90;99.90
27128;DHT22;14660;49.008;8.390;2022-09-03T19:14:06;20.90;99.90
27128;DHT22;14660;49.008;8.390;2022-09-03T19:17:26;20.90;99.90
27128;DHT22;14660;49.008;8.390;2022-09-03T19:20:29;21.00;99.90
27128;DHT22;14660;49.008;8.390;2022-09-03T19:23:15;21.00;99.90
27128;DHT22;14660;49.008;8.390;2022-09-03T19:26:19;20.90;99.90
27128;DHT22;14660;49.008;8.390;2022-09-03T19:29:36;20.80;99.90
27128;DHT22;14660;49.008;8.390;2022-09-03T19:32:20;20.80;99.90
27128;DHT22;14660;49.008;8.390;2022-09-03T19:35:16;20.70;99.90
27128;DHT22;14660;49.008;8.390;2022-09-03T19:39:09;20.60;99.90
27128;DHT22;14660;49.008;8.390;2022-09-03T19:41:47;20.60;99.90
27128;DHT22;14660;49.008;8.390;2022-09-03T19:51:20;20.70;99.90
27128;DHT22;14660;49.008;8.390;2022-09-03T19:54:07;20.70;99.90
27128;DHT22;14660;49.008;8.390;2022-09-03T19:56:56;20.70;99.90
27128;DHT22;14660;49.008;8.390;2022-09-03T19:59:44;20.60;99.90
27128;DHT22;14660;49.008;8.390;2022-09-03T20:02:32;20.60;99.90
27128;DHT22;14660;49.008;8.390;2022-09-03T20:05:21;20.60;99.90
27128;DHT22;14660;49.008;8.390;2022-09-03T20:08:08;20.50;99.90
27128;DHT22;14660;49.008;8.390;2022-09-03T20:10:57;20.40;99.90
27128;DHT22;14660;49.008;8.390;2022-09-03T20:13:24;20.30;99.90
27128;DHT22;14660;49.008;8.390;2022-09-03T20:16:16;20.40;99.90
27128;DHT22;14660;49.008;8.390;2022-09-03T20:19:14;20.30;99.90
27128;DHT22;14660;49.008;8.390;2022-09-03T20:22:17;20.30;99.90
27128;DHT22;14660;49.008;8.390;2022-09-03T20:25:16;20.20;99.90
27128;DHT22;14660;49.008;8.390;2022-09-03T20:30:55;20.00;99.90
27128;DHT22;14660;49.008;8.390;2022-09-03T20:45:21;20.00;99.90
27128;DHT22;14660;49.008;8.390;2022-09-03T20:48:12;20.00;99.90
27128;DHT22;14660;49.008;8.390;2022-09-03T20:54:12;19.90;99.90
27128;DHT22;14660;49.008;8.390;2022-09-03T20:57:03;19.90;99.90
27128;DHT22;14660;49.008;8.390;2022-09-03T21:00:01;19.90;99.90
27128;DHT22;14660;49.008;8.390;2022-09-03T21:02:59;19.90;99.90
27128;DHT22;14660;49.008;8.390;2022-09-03T21:17:53;19.90;99.90
27128;DHT22;14660;49.008;8.390;2022-09-03T21:26:38;19.90;99.90
27128;DHT22;14660;49.008;8.390;2022-09-03T21:29:26;20.00;99.90
27128;DHT22;14660;49.008;8.390;2022-09-03T21:32:23;19.90;99.90
27128;DHT22;14660;49.008;8.390;2022-09-03T21:41:28;19.80;99.90
27128;DHT22;14660;49.008;8.390;2022-09-03T21:44:16;19.60;99.90
27128;DHT22;14660;49.008;8.390;2022-09-03T21:47:12;19.70;99.90
27128;DHT22;14660;49.008;8.390;2022-09-03T21:53:17;19.70;99.90
27128;DHT22;14660;49.008;8.390;2022-09-03T22:02:26;19.80;99.90
27128;DHT22;14660;49.008;8.390;2022-09-03T22:04:55;19.90;99.90
27128;DHT22;14660;49.008;8.390;2022-09-03T22:07:47;19.80;99.90
27128;DHT22;14660;49.008;8.390;2022-09-03T22:16:36;19.70;99.90
27128;DHT22;14660;49.008;8.390;2022-09-03T22:19:04;19.50;99.90
27128;DHT22;14660;49.008;8.390;2022-09-03T22:21:58;19.40;99.90
27128;DHT22;14660;49.008;8.390;2022-09-03T22:36:23;19.40;99.90
27128;DHT22;14660;49.008;8.390;2022-09-03T22:56:54;19.20;99.90
27128;DHT22;14660;49.008;8.390;2022-09-03T22:59:41;19.20;99.90
27128;DHT22;14660;49.008;8.390;2022-09-03T23:02:26;19.20;99.90
27128;DHT22;14660;49.008;8.390;2022-09-03T23:08:03;19.00;99.90
27128;DHT22;14660;49.008;8.390;2022-09-03T23:10:41;19.10;99.90
27128;DHT22;14660;49.008;8.390;2022-09-03T23:13:29;19.10;99.90
27128;DHT22;14660;49.008;8.390;2022-09-03T23:16:08;19.10;99.90
27128;DHT22;14660;49.008;8.390;2022-09-03T23:18:43;19.00;99.90
27128;DHT22;14660;49.008;8.390;2022-09-03T23:21:38;18.90;99.90
27128;DHT22;14660;49.008;8.390;2022-09-03T23:24:15;18.80;99.90
27128;DHT22;14660;49.008;8.390;2022-09-03T23:27:02;18.90;99.90
27128;DHT22;14660;49.008;8.390;2022-09-03T23:29:53;18.80;99.90
27128;DHT22;14660;49.008;8.390;2022-09-03T23:32:22;18.80;99.90
27128;DHT22;14660;49.008;8.390;2022-09-03T23:34:49;18.80;99.90
27128;DHT22;14660;49.008;8.390;2022-09-03T23:43:24;18.80;99.90
27128;DHT22;14660;49.008;8.390;2022-09-03T23:49:18;18.60;99.90
